To NAV CANADA Home Page Login to a new session Search on AWWS site Disclaimer Vers la page française équivalente Tips FAQ What's new on the site To the Forecasts and Observations / NOTAM section To "File a Flight Plan" website Publications and other links Update of the User's profile FIC Telephone Numbers My Weather Data Folder Route Weather Data Regional Weather Data Local Weather Data To the Forecasts and Observations / NOTAM section
Request Generated 03/19/2019 at 23:08:18 UTC . Weather information available at that time is displayed.

METAR/TAF

CHIBOUGAMAU/CHAPAIS/QC    (show WxCam)

METAR CYMT 192300Z AUTO 21006KT 9SM SCT170 SCT190 M06/M19 A3011 RMK SLP239=
METAR CYMT 192200Z AUTO 22010G17KT 9SM CLR M04/M20 A3012 RMK SLP239=
METAR CYMT 192100Z AUTO 24011G17KT 9SM CLR M04/M19 A3013 RMK SLP244=

TAF CYMT 191740Z 1918/1924 20006KT P6SM SKC
FM192200 20008KT P6SM SCT050 BKN200
RMK FCST BASED ON AUTO OBS. NXT FCST WILL BE ISSUED AT 201145Z=
Your time UTC time
Weather data provided by Environment Canada and NAV CANADA